Time;durP1;ratioP1;P1;durP2;ratioP2;P2;SDS_P1;SDS_P2;PMS_P1;PMS_P2;Temp;Humidity;BMP_temperature;BMP_pressure;BME280_temperature;BME280_humidity;BME280_pressure;Samples;Min_cycle;Max_cycle;Signal;HPM_P1;HPM_P2
2021/05/04 00:02:08;;;;;;;5.70;3.25;;;;;;;5.19;69.62;98757.06;1827345;78;21134;-56
2021/05/04 00:04:36;;;;;;;8.38;2.98;;;;;;;5.15;69.71;98754.84;1827291;77;21102;-60
2021/05/04 00:07:05;;;;;;;5.25;2.85;;;;;;;5.13;69.89;98760.73;1827243;78;21138;-60
2021/05/04 00:09:34;;;;;;;7.70;2.92;;;;;;;5.08;70.08;98754.20;1827298;78;21134;-59
2021/05/04 00:12:01;;;;;;;6.28;3.10;;;;;;;5.06;70.25;98759.67;1827312;77;21480;-61
2021/05/04 00:14:31;;;;;;;6.08;3.25;;;;;;;5.03;70.51;98759.59;1827190;78;21280;-59
2021/05/04 00:16:58;;;;;;;5.78;3.20;;;;;;;4.97;70.68;98756.44;1827088;78;21126;-57
2021/05/04 00:19:26;;;;;;;5.70;3.02;;;;;;;4.93;70.89;98753.33;1827077;78;21123;-57
2021/05/04 00:21:54;;;;;;;5.40;3.27;;;;;;;4.92;71.12;98757.13;1827312;77;21265;-57
2021/05/04 00:24:22;;;;;;;5.70;2.95;;;;;;;4.90;71.21;98754.52;1827379;77;21351;-59
2021/05/04 00:26:49;;;;;;;3.90;2.30;;;;;;;4.88;71.42;98754.88;1827336;77;21106;-57
2021/05/04 00:29:17;;;;;;;5.33;3.12;;;;;;;4.86;71.58;98757.83;1827113;78;21161;-56
2021/05/04 00:31:44;;;;;;;7.05;3.00;;;;;;;4.85;71.73;98758.63;1827153;78;21130;-58
2021/05/04 00:34:12;;;;;;;8.30;3.12;;;;;;;4.84;71.89;98762.02;1827095;77;21146;-59
2021/05/04 00:36:39;;;;;;;5.78;3.20;;;;;;;4.86;71.96;98764.22;1827279;78;21276;-58
2021/05/04 00:39:07;;;;;;;6.97;3.52;;;;;;;4.89;72.07;98768.14;1827014;78;21126;-57
2021/05/04 00:41:35;;;;;;;5.25;3.00;;;;;;;4.91;72.10;98765.22;1827110;78;21146;-58
2021/05/04 00:44:03;;;;;;;5.53;2.98;;;;;;;4.93;72.14;98767.80;1827411;78;21139;-58
2021/05/04 00:46:31;;;;;;;7.22;3.12;;;;;;;4.94;72.15;98770.42;1827215;78;21271;-58
2021/05/04 00:48:58;;;;;;;5.65;3.30;;;;;;;4.94;72.15;98771.70;1827317;78;21256;-57
2021/05/04 00:51:26;;;;;;;5.80;3.55;;;;;;;4.94;72.11;98772.98;1827209;77;21276;-56
2021/05/04 00:53:54;;;;;;;10.45;3.00;;;;;;;4.92;72.13;98770.78;1827299;77;21288;-56
2021/05/04 00:56:23;;;;;;;5.62;3.02;;;;;;;4.91;72.26;98772.00;1827234;78;21366;-57
2021/05/04 00:58:52;;;;;;;5.87;2.83;;;;;;;4.89;72.28;98775.81;1827282;78;21118;-58
2021/05/04 01:01:20;;;;;;;4.90;2.95;;;;;;;4.85;72.32;98768.86;1827046;77;21139;-59
2021/05/04 01:03:50;;;;;;;10.50;3.30;;;;;;;4.82;72.39;98773.87;1827214;78;21166;-63
2021/05/04 01:06:18;;;;;;;6.72;3.35;;;;;;;4.81;72.48;98773.82;1826996;77;21154;-62
2021/05/04 01:08:46;;;;;;;6.83;3.70;;;;;;;4.77;72.61;98771.59;1827038;77;21300;-60
2021/05/04 01:11:15;;;;;;;6.65;3.90;;;;;;;4.75;72.82;98768.12;1827248;78;21119;-54
2021/05/04 01:13:50;;;;;;;6.17;3.67;;;;;;;4.74;72.95;98767.67;1827029;78;21150;-57
2021/05/04 01:16:19;;;;;;;8.33;4.12;;;;;;;4.72;73.13;98767.61;1827311;78;21131;-56
2021/05/04 01:18:47;;;;;;;8.98;3.70;;;;;;;4.72;73.32;98770.16;1827230;77;21091;-52
2021/05/04 01:21:16;;;;;;;7.53;3.92;;;;;;;4.73;73.44;98760.80;1827142;77;21103;-56
2021/05/04 01:23:44;;;;;;;6.58;3.50;;;;;;;4.73;73.52;98760.42;1827208;77;21134;-59
2021/05/04 01:26:11;;;;;;;5.83;3.72;;;;;;;4.74;73.50;98756.17;1827151;77;21138;-57
2021/05/04 01:28:39;;;;;;;7.50;3.65;;;;;;;4.72;73.62;98759.08;1826929;78;21138;-57
2021/05/04 01:31:07;;;;;;;6.72;3.75;;;;;;;4.71;73.80;98758.64;1827025;78;21139;-57
2021/05/04 01:33:34;;;;;;;6.47;3.83;;;;;;;4.71;73.83;98762.47;1827245;77;21260;-56
2021/05/04 01:36:03;;;;;;;7.65;4.17;;;;;;;4.67;73.94;98763.18;1827435;78;21123;-54
2021/05/04 01:38:32;;;;;;;7.58;3.95;;;;;;;4.65;74.09;98757.15;1827180;78;21164;-57
2021/05/04 01:40:59;;;;;;;8.13;4.15;;;;;;;4.63;74.28;98761.34;1827247;78;21142;-58
2021/05/04 01:43:27;;;;;;;7.65;3.67;;;;;;;4.63;74.46;98770.28;1827471;78;21265;-58
2021/05/04 01:45:54;;;;;;;8.75;4.03;;;;;;;4.63;74.62;98770.28;1827320;77;21268;-59
2021/05/04 01:48:22;;;;;;;6.92;4.22;;;;;;;4.65;74.80;98772.48;1827407;78;21294;-59
2021/05/04 01:50:50;;;;;;;7.22;4.08;;;;;;;4.65;74.78;98771.20;1827428;78;21158;-57
2021/05/04 01:53:18;;;;;;;6.87;4.03;;;;;;;4.68;74.88;98780.24;1827367;77;21257;-57
2021/05/04 01:55:46;;;;;;;11.25;4.33;;;;;;;4.66;74.97;98772.96;1827152;77;21134;-57
2021/05/04 01:58:13;;;;;;;6.20;4.15;;;;;;;4.65;75.10;98777.59;1827252;77;21142;-55
2021/05/04 02:00:41;;;;;;;9.45;4.90;;;;;;;4.65;75.16;98775.04;1827311;77;21130;-56
2021/05/04 02:03:09;;;;;;;7.40;4.05;;;;;;;4.63;75.26;98770.28;1827411;78;21269;-57
2021/05/04 02:05:37;;;;;;;5.78;3.50;;;;;;;4.61;75.41;98778.34;1827386;77;21273;-55
2021/05/04 02:08:06;;;;;;;6.20;3.75;;;;;;;4.60;75.57;98774.03;1827245;78;21122;-57
2021/05/04 02:10:33;;;;;;;9.45;3.87;;;;;;;4.56;75.77;98775.22;1827134;78;21213;-55
2021/05/04 02:13:01;;;;;;;12.18;4.35;;;;;;;4.56;75.93;98777.77;1827441;78;21093;-58
2021/05/04 02:15:29;;;;;;;6.47;4.00;;;;;;;4.57;76.10;98782.05;1827413;78;21166;-56
2021/05/04 02:17:57;;;;;;;7.65;4.37;;;;;;;4.59;76.27;98780.84;1827366;77;21135;-55
2021/05/04 02:20:24;;;;;;;10.93;5.03;;;;;;;4.62;76.36;98783.89;1827359;77;21146;-60
2021/05/04 02:22:52;;;;;;;7.17;4.37;;;;;;;4.63;76.40;98770.28;1827280;77;21297;-59
2021/05/04 02:25:20;;;;;;;7.67;4.47;;;;;;;4.63;76.46;98778.84;1827099;78;21277;-57
2021/05/04 02:27:48;;;;;;;6.62;4.22;;;;;;;4.63;76.63;98771.56;1827119;78;21134;-57
2021/05/04 02:30:17;;;;;;;5.45;3.87;;;;;;;4.60;76.82;98768.92;1813400;78;21135;-57
2021/05/04 02:32:44;;;;;;;7.53;4.33;;;;;;;4.57;77.05;98769.27;1813045;79;21537;-57
2021/05/04 02:35:14;;;;;;;7.87;4.62;;;;;;;4.59;77.11;98772.30;1813081;78;21131;-59
2021/05/04 02:37:41;;;;;;;9.80;4.42;;;;;;;4.60;77.15;98774.03;1812944;79;21700;-56
2021/05/04 02:40:11;;;;;;;8.83;4.50;;;;;;;4.62;77.27;98774.53;1812740;79;21127;-54
2021/05/04 02:42:39;;;;;;;8.50;5.00;;;;;;;4.64;77.41;98778.43;1812720;78;21143;-59
2021/05/04 02:45:09;;;;;;;6.45;4.12;;;;;;;4.70;77.40;98782.44;1812898;78;21261;-57
2021/05/04 02:47:37;;;;;;;6.05;4.30;;;;;;;4.73;77.34;98783.81;1813070;79;21671;-56
2021/05/04 02:50:06;;;;;;;7.83;5.15;;;;;;;4.74;77.28;98786.42;1812943;78;21139;-56
2021/05/04 02:52:34;;;;;;;8.88;4.85;;;;;;;4.76;77.25;98784.79;1813052;78;21561;-58
2021/05/04 02:55:03;;;;;;;8.68;4.55;;;;;;;4.78;77.18;98794.66;1813049;79;21147;-58
2021/05/04 02:57:30;;;;;;;8.48;5.20;;;;;;;4.78;77.14;98790.83;1812939;79;21111;-57
2021/05/04 02:59:58;;;;;;;6.80;4.40;;;;;;;4.79;77.12;98789.99;1812938;79;21151;-59
2021/05/04 03:02:25;;;;;;;8.70;4.28;;;;;;;4.80;77.16;98790.86;1812764;78;21135;-57
2021/05/04 03:04:54;;;;;;;8.25;4.60;;;;;;;4.84;77.13;98790.55;1812962;79;21270;-57
2021/05/04 03:07:21;;;;;;;6.58;4.25;;;;;;;4.87;77.12;98794.48;1812725;79;21289;-57
2021/05/04 03:09:48;;;;;;;8.85;4.80;;;;;;;4.92;77.10;98796.34;1812956;78;21276;-57
2021/05/04 03:12:16;;;;;;;6.80;4.70;;;;;;;4.97;77.01;98801.19;1812955;79;21126;-57
2021/05/04 03:14:44;;;;;;;7.90;4.67;;;;;;;5.04;76.92;98798.81;1813022;79;21277;-56
2021/05/04 03:17:12;;;;;;;8.55;4.67;;;;;;;5.07;76.87;98801.06;1812925;79;21340;-55
2021/05/04 03:19:41;;;;;;;7.12;4.25;;;;;;;5.11;76.76;98805.44;1812719;78;21108;-60
2021/05/04 03:22:08;;;;;;;7.37;4.80;;;;;;;5.14;76.66;98798.27;1812899;79;21273;-51
2021/05/04 03:24:36;;;;;;;6.87;4.30;;;;;;;5.16;76.85;98806.44;1812872;78;21135;-55
2021/05/04 03:27:05;;;;;;;8.00;4.87;;;;;;;5.37;77.12;98808.78;1812968;79;21482;-56
2021/05/04 03:29:32;;;;;;;8.65;4.70;;;;;;;5.46;76.47;98809.45;1820392;78;21174;-57
2021/05/04 03:32:01;;;;;;;9.85;5.12;;;;;;;5.47;76.18;98807.36;1827080;78;21123;-56
2021/05/04 03:34:29;;;;;;;7.67;4.80;;;;;;;5.49;76.02;98809.53;1827080;78;21146;-55
2021/05/04 03:36:57;;;;;;;8.28;4.90;;;;;;;5.53;75.91;98813.06;1827395;78;21145;-55
2021/05/04 03:39:25;;;;;;;7.42;4.83;;;;;;;5.56;75.81;98816.98;1827392;77;21269;-60
2021/05/04 03:41:53;;;;;;;9.03;5.10;;;;;;;5.60;75.66;98808.58;1794730;78;21322;-56
2021/05/04 03:44:20;;;;;;;7.90;5.22;;;;;;;5.63;75.51;98818.89;1794585;79;21136;-59
2021/05/04 03:46:49;;;;;;;9.45;5.30;;;;;;;5.63;75.46;98815.05;1799357;78;21134;-58
2021/05/04 03:49:16;;;;;;;7.80;5.30;;;;;;;5.65;75.50;98818.53;1812216;78;21375;-58
2021/05/04 03:51:44;;;;;;;9.20;5.00;;;;;;;5.70;75.37;98822.09;1811762;78;21139;-58
2021/05/04 03:54:11;;;;;;;8.08;4.60;;;;;;;5.72;75.33;98824.25;1803422;78;21338;-59
2021/05/04 03:56:39;;;;;;;7.90;5.03;;;;;;;5.77;75.29;98822.69;1795921;78;21165;-56
2021/05/04 03:59:07;;;;;;;10.58;4.67;;;;;;;5.83;75.18;98820.31;1808622;78;21135;-58
2021/05/04 04:01:36;;;;;;;7.03;4.67;;;;;;;5.92;75.08;98823.53;1810425;78;21134;-59
2021/05/04 04:04:04;;;;;;;9.53;4.85;;;;;;;6.02;74.96;98825.96;1812048;78;21240;-58
2021/05/04 04:06:32;;;;;;;9.03;5.67;;;;;;;6.12;74.73;98815.12;1809642;78;21142;-58
2021/05/04 04:08:59;;;;;;;8.45;4.87;;;;;;;6.22;74.46;98820.08;1809271;78;21110;-58
2021/05/04 04:11:27;;;;;;;7.12;4.35;;;;;;;6.28;74.33;98826.25;1811979;77;21139;-60
2021/05/04 04:13:55;;;;;;;9.95;5.37;;;;;;;6.36;74.06;98826.83;1810656;78;21170;-56
2021/05/04 04:16:23;;;;;;;7.62;4.72;;;;;;;6.42;73.89;98823.16;1808544;78;21200;-57
2021/05/04 04:18:51;;;;;;;6.50;4.53;;;;;;;6.48;73.66;98819.45;1808974;78;21181;-57
2021/05/04 04:21:18;;;;;;;7.53;5.03;;;;;;;6.55;73.35;98823.91;1811512;78;21107;-58
2021/05/04 04:23:46;;;;;;;9.43;4.95;;;;;;;6.61;73.23;98825.75;1824893;78;21223;-59
2021/05/04 04:26:14;;;;;;;11.35;5.60;;;;;;;6.67;73.00;98825.50;1817360;77;21134;-63
2021/05/04 04:28:42;;;;;;;6.85;4.60;;;;;;;6.72;72.76;98822.63;1827259;78;21308;-64
2021/05/04 04:31:10;;;;;;;10.90;5.03;;;;;;;6.79;72.51;98822.77;1827180;78;21103;-64
2021/05/04 04:33:38;;;;;;;8.93;5.15;;;;;;;6.84;72.27;98821.17;1827181;78;21703;-65
2021/05/04 04:36:06;;;;;;;8.78;5.30;;;;;;;6.90;71.95;98822.61;1826999;78;21260;-64
2021/05/04 04:38:34;;;;;;;9.33;5.03;;;;;;;6.97;71.88;98830.88;1827152;77;21126;-62
2021/05/04 04:41:02;;;;;;;9.18;5.20;;;;;;;7.07;71.65;98831.96;1827068;78;21130;-64
2021/05/04 04:43:30;;;;;;;7.80;4.97;;;;;;;7.18;71.55;98831.38;1827333;78;21233;-64
2021/05/04 04:45:57;;;;;;;10.32;5.58;;;;;;;7.33;71.26;98828.29;1827222;78;21273;-63
2021/05/04 04:48:25;;;;;;;8.83;5.53;;;;;;;7.48;70.97;98838.02;1827272;77;21253;-65
2021/05/04 04:50:54;;;;;;;10.60;5.58;;;;;;;7.65;70.48;98832.36;1827427;77;21603;-65
2021/05/04 04:53:22;;;;;;;8.78;5.22;;;;;;;7.78;69.83;98838.19;1827024;77;21276;-65
2021/05/04 04:55:50;;;;;;;7.95;5.40;;;;;;;7.85;69.48;98841.33;1827045;78;21134;-65
2021/05/04 04:58:17;;;;;;;7.90;5.30;;;;;;;7.89;68.96;98840.56;1811071;78;21122;-65
2021/05/04 05:00:45;;;;;;;10.43;5.97;;;;;;;7.92;68.79;98844.47;1809518;78;21098;-64
2021/05/04 05:03:13;;;;;;;8.18;5.37;;;;;;;7.97;68.65;98844.14;1822221;77;21177;-66
2021/05/04 05:05:41;;;;;;;9.13;5.40;;;;;;;8.05;68.29;98847.72;1811249;77;21154;-67
2021/05/04 05:08:09;;;;;;;9.73;5.45;;;;;;;8.20;67.79;98851.43;1809347;78;21288;-65
2021/05/04 05:10:36;;;;;;;8.98;5.47;;;;;;;8.25;67.50;98858.37;1811732;77;21253;-64
2021/05/04 05:13:04;;;;;;;9.40;6.00;;;;;;;8.32;67.33;98845.62;1808217;78;21130;-66
2021/05/04 05:15:37;;;;;;;8.70;5.50;;;;;;;8.50;66.93;98852.83;1799522;77;21279;-64
2021/05/04 05:18:04;;;;;;;9.58;5.85;;;;;;;8.67;66.25;98835.98;1794671;79;21145;-64
2021/05/04 05:20:32;;;;;;;9.73;5.60;;;;;;;8.72;65.47;98845.92;1795125;79;21158;-65
2021/05/04 05:23:01;;;;;;;8.60;4.80;;;;;;;9.05;65.19;98852.02;1794707;80;21154;-64
2021/05/04 05:25:28;;;;;;;8.25;4.90;;;;;;;10.58;62.89;98857.34;1820114;78;21323;-65
2021/05/04 05:27:56;;;;;;;7.55;4.75;;;;;;;12.56;58.11;98858.41;1811851;78;21173;-64
2021/05/04 05:30:24;;;;;;;9.20;5.42;;;;;;;14.36;53.48;98855.00;1744681;81;21150;-66
2021/05/04 05:32:52;;;;;;;6.90;4.75;;;;;;;14.40;48.75;98867.09;1781024;80;21131;-65
2021/05/04 05:35:20;;;;;;;6.92;3.90;;;;;;;14.94;48.73;98871.50;1781133;80;21115;-65
2021/05/04 05:37:47;;;;;;;6.35;4.30;;;;;;;15.97;46.46;98874.37;1780890;80;21745;-67
2021/05/04 05:40:15;;;;;;;6.30;3.77;;;;;;;16.67;44.97;98871.25;1781095;80;21576;-64
2021/05/04 05:42:43;;;;;;;7.53;4.28;;;;;;;16.88;43.47;98875.30;1780816;79;21167;-67
2021/05/04 05:45:11;;;;;;;6.95;4.37;;;;;;;17.45;42.81;98873.00;1786542;78;21143;-67
2021/05/04 05:47:39;;;;;;;7.60;3.37;;;;;;;18.58;40.90;98871.61;1800170;79;21106;-68
2021/05/04 05:50:08;;;;;;;6.90;3.83;;;;;;;19.53;38.78;98874.05;1812799;79;21118;-61
2021/05/04 05:52:36;;;;;;;6.12;3.90;;;;;;;20.03;36.10;98867.49;1812968;79;21154;-65
2021/05/04 05:55:06;;;;;;;6.75;3.70;;;;;;;19.63;36.76;98870.73;1812745;79;21115;-71
2021/05/04 05:57:33;;;;;;;6.92;3.80;;;;;;;19.63;36.76;98870.73;1812755;78;21150;-68
2021/05/04 06:00:01;;;;;;;6.62;3.47;;;;;;;19.37;36.38;98864.89;1812944;78;21131;-66
2021/05/04 06:02:28;;;;;;;6.17;3.30;;;;;;;19.60;36.68;98873.44;1812747;79;21139;-66
2021/05/04 06:04:56;;;;;;;5.58;3.37;;;;;;;19.60;36.37;98869.52;1812999;79;21150;-66
2021/05/04 06:07:23;;;;;;;6.17;3.30;;;;;;;20.19;36.10;98870.52;1812984;78;21135;-67
2021/05/04 06:09:51;;;;;;;5.05;2.98;;;;;;;21.27;33.53;98873.22;1812752;78;21139;-65
2021/05/04 06:12:19;;;;;;;5.75;3.47;;;;;;;21.18;33.28;98876.56;1812783;78;21096;-63
2021/05/04 06:14:47;;;;;;;6.97;3.12;;;;;;;21.09;33.05;98879.95;1812674;78;21232;-66
2021/05/04 06:17:15;;;;;;;5.72;3.12;;;;;;;20.95;33.58;98881.27;1813079;79;21126;-63
2021/05/04 06:19:44;;;;;;;5.87;3.52;;;;;;;21.61;32.79;98886.09;1812976;79;21722;-64
2021/05/04 06:22:11;;;;;;;5.40;3.33;;;;;;;21.56;32.78;98885.39;1813005;79;21292;-63
2021/05/04 06:24:39;;;;;;;6.00;3.00;;;;;;;21.49;32.72;98889.14;1812866;79;21297;-65
2021/05/04 06:27:07;;;;;;;5.85;3.30;;;;;;;20.68;33.10;98890.86;1812981;79;21289;-64
2021/05/04 06:29:37;;;;;;;5.05;2.87;;;;;;;19.17;35.03;98886.79;1812673;78;21222;-64
2021/05/04 06:32:15;;;;;;;5.90;2.98;;;;;;;17.68;37.72;98886.07;1812705;78;21216;-64
2021/05/04 06:34:39;;;;;;;5.50;3.30;;;;;;;17.22;38.90;98885.61;1812394;78;21131;-64
2021/05/04 06:37:07;;;;;;;5.80;3.15;;;;;;;16.91;39.20;98874.38;1813101;79;21348;-62
2021/05/04 06:39:35;;;;;;;6.97;3.70;;;;;;;16.18;40.55;98874.98;1812749;78;21151;-65
2021/05/04 06:42:04;;;;;;;5.55;3.40;;;;;;;15.75;41.78;98871.63;1812997;79;21290;-66
2021/05/04 06:44:31;;;;;;;5.33;3.40;;;;;;;17.77;38.40;98881.54;1812953;78;21143;-65
2021/05/04 06:46:59;;;;;;;5.70;3.70;;;;;;;17.77;38.40;98881.54;1812899;79;21139;-65
2021/05/04 06:49:26;;;;;;;5.55;3.02;;;;;;;18.95;37.34;98874.68;1803432;79;21159;-66
2021/05/04 06:51:54;;;;;;;6.35;2.95;;;;;;;20.64;34.99;98881.86;1797530;79;21281;-67
2021/05/04 06:54:21;;;;;;;5.90;3.08;;;;;;;20.71;33.14;98883.35;1796737;78;21348;-66
2021/05/04 06:56:49;;;;;;;5.37;2.90;;;;;;;20.39;33.86;98888.66;1794725;79;21128;-66
2021/05/04 06:59:17;;;;;;;4.53;2.45;;;;;;;21.47;32.20;98895.74;1796865;79;21296;-69
2021/05/04 07:01:44;;;;;;;4.62;2.83;;;;;;;20.60;32.30;98900.28;1789360;79;21119;-64
2021/05/04 07:04:14;;;;;;;4.53;2.70;;;;;;;19.17;34.43;98894.64;1789016;79;21139;-67
2021/05/04 07:06:43;;;;;;;5.00;2.87;;;;;;;17.31;37.22;98906.33;1800202;79;21213;-65
2021/05/04 07:09:11;;;;;;;4.70;3.35;;;;;;;15.75;40.42;98908.05;1805124;78;21163;-65
2021/05/04 07:11:39;;;;;;;6.53;3.35;;;;;;;14.52;43.27;98901.20;1805843;78;21276;-65
2021/05/04 07:14:06;;;;;;;4.87;2.87;;;;;;;13.60;44.96;98908.92;1808926;79;21257;-64
2021/05/04 07:16:35;;;;;;;8.68;3.65;;;;;;;13.24;46.54;98905.48;1812673;78;21139;-65
2021/05/04 07:19:03;;;;;;;5.12;3.02;;;;;;;13.01;47.34;98908.52;1798356;78;21075;-63
2021/05/04 07:21:33;;;;;;;6.60;3.08;;;;;;;14.05;46.36;98913.55;1796486;78;21135;-66
2021/05/04 07:24:01;;;;;;;7.20;3.08;;;;;;;15.25;44.16;98917.17;1793974;78;21115;-64
2021/05/04 07:26:28;;;;;;;4.87;3.10;;;;;;;16.30;42.35;98916.48;1780899;80;21111;-63
2021/05/04 07:28:56;;;;;;;4.80;3.00;;;;;;;16.55;41.33;98920.93;1793162;79;21309;-65
2021/05/04 07:31:25;;;;;;;5.08;3.02;;;;;;;16.57;40.84;98923.53;1803798;78;21273;-61
2021/05/04 07:33:53;;;;;;;5.47;3.10;;;;;;;16.60;40.72;98929.54;1812715;79;21300;-62
2021/05/04 07:36:22;;;;;;;5.85;3.77;;;;;;;15.98;41.15;98920.80;1812771;78;21114;-65
2021/05/04 07:38:50;;;;;;;6.62;3.45;;;;;;;15.11;42.64;98932.86;1813041;78;21150;-64
2021/05/04 07:41:18;;;;;;;4.95;3.15;;;;;;;14.50;43.51;98924.59;1812954;79;21278;-62
2021/05/04 07:43:46;;;;;;;5.20;3.20;;;;;;;15.10;43.02;98922.05;1812672;78;21218;-63
2021/05/04 07:46:14;;;;;;;5.50;3.05;;;;;;;15.69;41.31;98913.27;1812850;78;21127;-64
2021/05/04 07:48:41;;;;;;;4.65;2.85;;;;;;;15.33;41.46;98924.02;1812867;79;21285;-64
2021/05/04 07:51:11;;;;;;;7.17;3.37;;;;;;;15.77;41.68;98934.48;1812904;79;21565;-62
2021/05/04 07:53:38;;;;;;;7.87;3.17;;;;;;;17.60;38.67;98938.41;1812928;78;21130;-65
2021/05/04 07:56:06;;;;;;;4.28;2.77;;;;;;;19.36;35.88;98936.88;1812676;78;21123;-63
2021/05/04 07:58:33;;;;;;;5.42;2.60;;;;;;;20.02;33.87;98938.64;1812688;78;21131;-64
2021/05/04 08:01:02;;;;;;;5.08;2.87;;;;;;;19.91;33.35;98955.97;1812897;78;21127;-63
2021/05/04 08:03:31;;;;;;;5.85;2.98;;;;;;;19.19;33.78;98948.64;1812867;79;21274;-64
2021/05/04 08:05:59;;;;;;;6.12;2.87;;;;;;;18.39;34.70;98953.03;1812679;78;21103;-63
2021/05/04 08:08:27;;;;;;;4.65;2.90;;;;;;;17.42;36.15;98964.37;1812666;78;21584;-63
2021/05/04 08:10:55;;;;;;;6.47;3.12;;;;;;;16.40;37.99;98948.48;1812925;79;21124;-55
2021/05/04 08:13:23;;;;;;;7.05;3.50;;;;;;;15.39;41.56;98947.80;1812098;78;21177;-63
2021/05/04 08:15:53;;;;;;;8.00;3.55;;;;;;;14.26;43.08;98933.35;1794604;78;21289;-65
2021/05/04 08:18:22;;;;;;;6.78;3.58;;;;;;;13.47;45.40;98946.11;1807145;79;21135;-56
2021/05/04 08:20:56;;;;;;;7.75;3.10;;;;;;;13.73;45.44;98942.17;1812925;78;21139;-62
2021/05/04 08:23:24;;;;;;;7.70;3.27;;;;;;;14.40;44.32;98935.91;1812034;78;21226;-69
2021/05/04 08:25:50;;;;;;;6.05;3.25;;;;;;;14.93;43.43;98936.05;1812649;78;21367;-68
2021/05/04 08:28:19;;;;;;;4.60;2.87;;;;;;;14.96;43.37;98931.27;1812443;78;21135;-66
2021/05/04 08:30:51;;;;;;;7.00;3.20;;;;;;;14.92;42.76;98946.00;1818602;77;21212;-64
2021/05/04 08:33:19;;;;;;;5.90;2.87;;;;;;;14.59;42.72;98941.02;1827107;78;21130;-66
2021/05/04 08:35:48;;;;;;;5.10;3.02;;;;;;;14.08;43.39;98952.45;1827202;77;21286;-65
2021/05/04 08:38:16;;;;;;;4.87;3.12;;;;;;;13.62;44.59;98959.05;1827350;77;21579;-68
2021/05/04 08:40:44;;;;;;;5.35;2.98;;;;;;;13.20;45.21;98956.91;1827194;77;21281;-64
2021/05/04 08:43:12;;;;;;;6.20;2.90;;;;;;;12.97;46.19;98956.86;1818810;78;21130;-66
2021/05/04 08:45:44;;;;;;;6.10;3.27;;;;;;;12.90;46.38;98946.48;1810450;77;21142;-65
2021/05/04 08:48:17;;;;;;;5.37;3.22;;;;;;;13.08;46.36;98957.30;1808787;77;21086;-65
2021/05/04 08:50:44;;;;;;;6.10;3.17;;;;;;;13.30;46.48;98951.73;1809728;78;21437;-65
2021/05/04 08:53:15;;;;;;;5.95;3.60;;;;;;;13.37;46.24;98950.44;1806395;78;21663;-65
2021/05/04 08:55:43;;;;;;;5.95;3.60;;;;;;;13.37;46.35;98952.17;1810063;77;21281;-64
2021/05/04 08:58:11;;;;;;;6.10;3.42;;;;;;;13.31;45.94;98956.08;1812024;78;21122;-65
2021/05/04 09:00:41;;;;;;;6.15;3.30;;;;;;;13.19;45.93;98944.79;1807358;78;21146;-66
2021/05/04 09:03:20;;;;;;;4.95;3.27;;;;;;;13.12;45.88;98953.86;1809030;78;21166;-64
2021/05/04 09:06:05;;;;;;;7.12;3.15;;;;;;;13.18;45.88;98949.55;1814730;77;21142;-66
2021/05/04 09:08:40;;;;;;;5.33;3.25;;;;;;;13.22;45.50;98951.27;1817135;78;21145;-65
2021/05/04 09:11:39;;;;;;;4.47;2.75;;;;;;;13.24;45.40;98946.95;1812049;77;21106;-66
2021/05/04 09:19:34;;;;;;;;;;;;;;;12.77;46.00;98948.20;1812260;78;21280;-62
2021/05/04 09:21:52;;;;;;;6.37;3.00;;;;;;;12.33;46.99;98944.63;1814311;77;20143;-62
2021/05/04 09:24:39;;;;;;;5.62;3.35;;;;;;;11.82;47.56;98935.75;1792676;78;21142;-65
2021/05/04 09:27:09;;;;;;;5.60;2.95;;;;;;;11.53;48.38;98947.66;1825731;78;21300;-64
2021/05/04 09:29:54;;;;;;;4.72;3.05;;;;;;;11.43;48.74;98946.28;1813250;78;21309;-63
2021/05/04 09:32:27;;;;;;;8.70;3.00;;;;;;;11.25;49.39;98947.01;1808700;78;21167;-67
2021/05/04 09:35:04;;;;;;;5.92;3.30;;;;;;;11.12;49.80;98943.00;1793486;78;21256;-63
2021/05/04 09:37:41;;;;;;;5.20;2.95;;;;;;;11.00;50.61;98936.03;1810133;78;21291;-66
2021/05/04 09:40:27;;;;;;;5.80;3.15;;;;;;;10.94;50.77;98942.02;1810645;78;21325;-64
2021/05/04 09:43:05;;;;;;;4.78;2.75;;;;;;;10.96;50.70;98935.13;1812546;78;21122;-65
2021/05/04 09:45:46;;;;;;;5.30;2.72;;;;;;;10.84;50.74;98936.33;1812728;78;21146;-63
2021/05/04 09:48:34;;;;;;;4.42;2.50;;;;;;;10.80;50.77;98933.27;1811540;78;21299;-62
2021/05/04 09:51:15;;;;;;;4.40;2.90;;;;;;;10.89;50.57;98943.69;1813489;78;21260;-65
2021/05/04 09:56:16;;;;;;;4.85;2.35;;;;;;;11.01;49.98;98937.32;1809161;77;21134;-66
2021/05/04 09:58:49;;;;;;;4.65;2.52;;;;;;;10.96;49.92;98940.29;1803172;78;21144;-66
2021/05/04 10:01:20;;;;;;;5.05;2.47;;;;;;;10.86;50.12;98932.02;1809249;77;21126;-65
2021/05/04 10:03:52;;;;;;;4.45;2.90;;;;;;;10.78;50.43;98934.97;1805814;78;21187;-66
2021/05/04 10:06:22;;;;;;;6.60;3.00;;;;;;;10.84;50.67;98933.75;1807849;78;21279;-65
2021/05/04 10:08:51;;;;;;;4.25;2.62;;;;;;;10.97;50.52;98935.59;1805757;78;21134;-66
2021/05/04 10:11:22;;;;;;;7.50;3.33;;;;;;;11.26;50.18;98928.49;1812880;78;21097;-65
2021/05/04 10:13:58;;;;;;;4.85;2.87;;;;;;;11.52;50.01;98932.55;1805883;78;21151;-65
2021/05/04 10:16:28;;;;;;;7.10;3.20;;;;;;;11.74;49.96;98927.09;1807913;78;21528;-64
2021/05/04 10:19:03;;;;;;;;;;;;;;;11.72;48.88;98932.67;1814572;78;21189;-64
2021/05/04 10:21:31;;;;;;;5.25;2.75;;;;;;;11.71;48.26;98924.06;1812498;78;20125;-68
2021/05/04 10:24:00;;;;;;;6.25;2.85;;;;;;;11.55;48.61;98926.13;1812771;78;21120;-65
2021/05/04 10:26:31;;;;;;;7.42;2.40;;;;;;;11.46;48.52;98916.58;1803674;78;21570;-66
2021/05/04 10:29:04;;;;;;;4.70;2.30;;;;;;;11.43;48.50;98926.05;1808060;78;21342;-62
2021/05/04 10:31:40;;;;;;;3.65;2.00;;;;;;;11.62;48.29;98932.18;1803194;78;21162;-62
2021/05/04 10:34:34;;;;;;;4.33;1.90;;;;;;;11.87;47.83;98917.28;1803221;78;21161;-66
2021/05/04 10:37:28;;;;;;;3.55;1.75;;;;;;;12.09;47.06;98923.86;1807718;78;21153;-65
2021/05/04 10:39:56;;;;;;;3.37;1.72;;;;;;;12.46;45.80;98918.80;1811504;78;21157;-66
2021/05/04 10:42:35;;;;;;;3.60;1.80;;;;;;;12.70;44.95;98894.26;1803869;78;21266;-66
2021/05/04 10:45:10;;;;;;;3.52;1.90;;;;;;;12.78;44.46;98921.45;1808415;78;21106;-64
2021/05/04 10:47:46;;;;;;;4.97;1.70;;;;;;;12.84;43.78;98918.00;1808790;78;21150;-62
2021/05/04 10:50:27;;;;;;;3.85;2.00;;;;;;;12.58;44.20;98913.65;1806733;77;21178;-67
2021/05/04 10:52:59;;;;;;;3.17;1.93;;;;;;;12.26;44.81;98906.68;1805291;78;21573;-65
2021/05/04 10:55:56;;;;;;;3.40;2.22;;;;;;;11.94;45.72;98925.50;1803669;78;21260;-64
2021/05/04 10:58:26;;;;;;;4.97;1.82;;;;;;;11.92;46.25;98924.63;1807358;78;21277;-63
2021/05/04 11:01:01;;;;;;;5.55;2.50;;;;;;;12.03;46.45;98919.50;1821171;78;21098;-62
2021/05/04 11:03:35;;;;;;;6.17;2.08;;;;;;;12.22;46.43;98919.59;1794839;78;21662;-63
2021/05/04 11:06:13;;;;;;;2.95;1.62;;;;;;;12.43;45.74;98922.23;1796145;78;21157;-63
2021/05/04 11:08:47;;;;;;;3.85;1.92;;;;;;;12.62;45.51;98917.09;1817009;78;21171;-64
2021/05/04 11:11:23;;;;;;;4.37;1.92;;;;;;;12.84;44.88;98908.94;1811253;78;21290;-64
2021/05/04 11:13:59;;;;;;;4.55;1.70;;;;;;;12.89;44.44;98909.80;1737485;82;21337;-64
2021/05/04 11:16:56;;;;;;;3.00;1.47;;;;;;;12.86;44.41;98919.73;1739333;81;21279;-60
2021/05/04 11:22:23;;;;;;;2.65;1.35;;;;;;;12.32;44.01;98902.80;1869625;76;22211;-67
2021/05/04 11:24:52;;;;;;;2.62;1.50;;;;;;;12.03;44.35;98910.87;1838291;77;21277;-64
2021/05/04 11:27:26;;;;;;;10.28;1.80;;;;;;;11.98;44.30;98922.48;1838703;77;21563;-65
2021/05/04 11:29:59;;;;;;;3.10;1.57;;;;;;;12.07;44.29;98917.80;1827708;77;21287;-63
2021/05/04 11:32:45;;;;;;;3.60;1.60;;;;;;;12.25;43.90;98910.11;1832448;77;21157;-66
2021/05/04 11:35:14;;;;;;;2.05;1.27;;;;;;;12.38;43.60;98910.57;1828153;77;21793;-66
2021/05/04 11:37:48;;;;;;;4.08;1.67;;;;;;;12.31;42.02;98908.85;1828424;77;21110;-66
2021/05/04 11:40:25;;;;;;;2.42;1.42;;;;;;;12.20;43.08;98912.25;1827235;77;21185;-65
2021/05/04 11:42:57;;;;;;;2.60;1.25;;;;;;;12.17;43.58;98898.88;1832648;77;21604;-66
2021/05/04 11:45:33;;;;;;;3.47;1.67;;;;;;;12.14;43.87;98905.34;1837688;77;21266;-66
2021/05/04 11:48:10;;;;;;;2.83;1.50;;;;;;;12.25;43.89;98898.47;1772401;80;21133;-64
2021/05/04 11:50:44;;;;;;;4.08;1.37;;;;;;;12.37;43.18;98908.86;1770425;80;21209;-63
2021/05/04 11:53:16;;;;;;;2.95;1.60;;;;;;;12.39;42.55;98889.46;1788002;80;21189;-64
2021/05/04 11:55:53;;;;;;;2.80;1.50;;;;;;;12.43;42.73;98912.32;1770373;80;21323;-65
2021/05/04 11:58:26;;;;;;;3.98;1.98;;;;;;;12.60;41.74;98907.61;1774992;80;21547;-64
2021/05/04 12:01:05;;;;;;;2.58;1.27;;;;;;;12.51;41.54;98893.78;1787734;79;21153;-67